sensor_id;sensor_type;location;lat;lon;timestamp;temperature;humidity
16076;DHT22;8142;48.242;11.644;2022-10-23T00:00:35;12.00;99.90
16076;DHT22;8142;48.242;11.644;2022-10-23T00:03:02;11.90;99.90
16076;DHT22;8142;48.242;11.644;2022-10-23T00:05:28;11.90;99.90
16076;DHT22;8142;48.242;11.644;2022-10-23T00:07:56;11.90;99.90
16076;DHT22;8142;48.242;11.644;2022-10-23T00:10:24;11.70;99.90
16076;DHT22;8142;48.242;11.644;2022-10-23T00:12:51;11.90;99.90
16076;DHT22;8142;48.242;11.644;2022-10-23T00:15:20;12.00;99.90
16076;DHT22;8142;48.242;11.644;2022-10-23T00:17:47;12.10;99.90
16076;DHT22;8142;48.242;11.644;2022-10-23T00:20:15;12.10;99.90
16076;DHT22;8142;48.242;11.644;2022-10-23T00:22:41;12.00;99.90
16076;DHT22;8142;48.242;11.644;2022-10-23T00:25:08;12.00;99.90
16076;DHT22;8142;48.242;11.644;2022-10-23T00:27:34;11.90;99.90
16076;DHT22;8142;48.242;11.644;2022-10-23T00:30:00;11.90;99.90
16076;DHT22;8142;48.242;11.644;2022-10-23T00:32:27;11.80;99.90
16076;DHT22;8142;48.242;11.644;2022-10-23T00:34:53;11.80;99.90
16076;DHT22;8142;48.242;11.644;2022-10-23T00:37:19;11.70;99.90
16076;DHT22;8142;48.242;11.644;2022-10-23T00:39:45;11.60;99.90
16076;DHT22;8142;48.242;11.644;2022-10-23T00:42:15;11.60;99.90
16076;DHT22;8142;48.242;11.644;2022-10-23T00:47:07;11.90;99.90
16076;DHT22;8142;48.242;11.644;2022-10-23T00:49:34;11.90;99.90
16076;DHT22;8142;48.242;11.644;2022-10-23T00:52:04;11.90;99.90
16076;DHT22;8142;48.242;11.644;2022-10-23T00:54:39;11.70;99.90
16076;DHT22;8142;48.242;11.644;2022-10-23T00:57:09;11.70;99.90
16076;DHT22;8142;48.242;11.644;2022-10-23T00:59:36;11.60;99.90
16076;DHT22;8142;48.242;11.644;2022-10-23T01:02:03;11.60;99.90
16076;DHT22;8142;48.242;11.644;2022-10-23T01:04:30;11.50;99.90
16076;DHT22;8142;48.242;11.644;2022-10-23T01:10:17;11.40;99.90
16076;DHT22;8142;48.242;11.644;2022-10-23T01:17:58;11.60;99.90
16076;DHT22;8142;48.242;11.644;2022-10-23T01:28:49;11.40;99.90
16076;DHT22;8142;48.242;11.644;2022-10-23T01:31:33;11.30;99.90
16076;DHT22;8142;48.242;11.644;2022-10-23T01:34:07;11.20;99.90
16076;DHT22;8142;48.242;11.644;2022-10-23T01:36:36;11.10;99.90
16076;DHT22;8142;48.242;11.644;2022-10-23T01:39:07;11.00;99.90
16076;DHT22;8142;48.242;11.644;2022-10-23T01:41:45;11.00;99.90
16076;DHT22;8142;48.242;11.644;2022-10-23T01:44:26;11.20;99.90
16076;DHT22;8142;48.242;11.644;2022-10-23T01:46:54;11.40;99.90
16076;DHT22;8142;48.242;11.644;2022-10-23T01:49:22;11.30;99.90
16076;DHT22;8142;48.242;11.644;2022-10-23T01:51:52;11.40;99.90
16076;DHT22;8142;48.242;11.644;2022-10-23T01:54:37;11.30;99.90
16076;DHT22;8142;48.242;11.644;2022-10-23T01:57:07;11.20;99.90
16076;DHT22;8142;48.242;11.644;2022-10-23T01:59:39;11.20;99.90
16076;DHT22;8142;48.242;11.644;2022-10-23T02:02:08;11.10;99.90
16076;DHT22;8142;48.242;11.644;2022-10-23T02:04:44;11.10;99.90
16076;DHT22;8142;48.242;11.644;2022-10-23T02:07:11;11.00;99.90
16076;DHT22;8142;48.242;11.644;2022-10-23T02:09:37;11.00;99.90
16076;DHT22;8142;48.242;11.644;2022-10-23T02:12:12;11.00;99.90
16076;DHT22;8142;48.242;11.644;2022-10-23T02:15:13;11.10;99.90
16076;DHT22;8142;48.242;11.644;2022-10-23T02:17:46;11.40;99.90
16076;DHT22;8142;48.242;11.644;2022-10-23T02:20:37;11.30;99.90
16076;DHT22;8142;48.242;11.644;2022-10-23T02:23:19;11.20;99.90
16076;DHT22;8142;48.242;11.644;2022-10-23T02:26:15;11.20;99.90
16076;DHT22;8142;48.242;11.644;2022-10-23T02:28:50;11.20;99.90
16076;DHT22;8142;48.242;11.644;2022-10-23T02:31:18;11.10;99.90
16076;DHT22;8142;48.242;11.644;2022-10-23T02:33:46;11.10;99.90
16076;DHT22;8142;48.242;11.644;2022-10-23T02:36:13;11.00;99.90
16076;DHT22;8142;48.242;11.644;2022-10-23T02:38:41;10.90;99.90
16076;DHT22;8142;48.242;11.644;2022-10-23T02:41:18;10.90;99.90
16076;DHT22;8142;48.242;11.644;2022-10-23T02:47:18;11.20;99.90
16076;DHT22;8142;48.242;11.644;2022-10-23T02:50:06;11.20;99.90
16076;DHT22;8142;48.242;11.644;2022-10-23T03:01:20;11.00;99.90
16076;DHT22;8142;48.242;11.644;2022-10-23T03:04:06;10.90;99.90
16076;DHT22;8142;48.242;11.644;2022-10-23T03:06:33;10.80;99.90
16076;DHT22;8142;48.242;11.644;2022-10-23T03:09:04;10.80;99.90
16076;DHT22;8142;48.242;11.644;2022-10-23T03:11:29;10.80;99.90
16076;DHT22;8142;48.242;11.644;2022-10-23T03:13:55;10.90;99.90
16076;DHT22;8142;48.242;11.644;2022-10-23T03:16:21;11.10;99.90
16076;DHT22;8142;48.242;11.644;2022-10-23T03:18:47;11.10;99.90
16076;DHT22;8142;48.242;11.644;2022-10-23T03:21:13;11.10;99.90
16076;DHT22;8142;48.242;11.644;2022-10-23T03:23:39;11.00;99.90
16076;DHT22;8142;48.242;11.644;2022-10-23T03:26:05;10.90;99.90
16076;DHT22;8142;48.242;11.644;2022-10-23T03:28:31;10.90;99.90
16076;DHT22;8142;48.242;11.644;2022-10-23T03:30:57;10.80;99.90
16076;DHT22;8142;48.242;11.644;2022-10-23T03:33:22;10.70;99.90
16076;DHT22;8142;48.242;11.644;2022-10-23T03:35:48;10.50;99.90
16076;DHT22;8142;48.242;11.644;2022-10-23T03:38:15;10.50;99.90
16076;DHT22;8142;48.242;11.644;2022-10-23T03:40:41;10.50;99.90
16076;DHT22;8142;48.242;11.644;2022-10-23T03:43:07;10.40;99.90
16076;DHT22;8142;48.242;11.644;2022-10-23T03:45:33;10.40;99.90
16076;DHT22;8142;48.242;11.644;2022-10-23T03:47:59;10.50;99.90
16076;DHT22;8142;48.242;11.644;2022-10-23T03:50:25;10.40;99.90
16076;DHT22;8142;48.242;11.644;2022-10-23T03:52:50;10.50;99.90
16076;DHT22;8142;48.242;11.644;2022-10-23T03:55:17;10.40;99.90
16076;DHT22;8142;48.242;11.644;2022-10-23T03:57:43;10.40;99.90
16076;DHT22;8142;48.242;11.644;2022-10-23T04:00:09;10.40;99.90
16076;DHT22;8142;48.242;11.644;2022-10-23T04:02:35;10.30;99.90
16076;DHT22;8142;48.242;11.644;2022-10-23T04:05:01;10.20;99.90
16076;DHT22;8142;48.242;11.644;2022-10-23T04:07:27;9.90;99.90
16076;DHT22;8142;48.242;11.644;2022-10-23T04:09:52;9.70;99.90
16076;DHT22;8142;48.242;11.644;2022-10-23T04:12:18;9.50;99.90
16076;DHT22;8142;48.242;11.644;2022-10-23T04:14:44;9.30;99.90
16076;DHT22;8142;48.242;11.644;2022-10-23T04:17:10;9.10;99.90
16076;DHT22;8142;48.242;11.644;2022-10-23T04:19:36;8.90;99.90
16076;DHT22;8142;48.242;11.644;2022-10-23T04:22:01;8.80;99.90
16076;DHT22;8142;48.242;11.644;2022-10-23T04:24:27;8.60;99.90
16076;DHT22;8142;48.242;11.644;2022-10-23T04:26:53;8.50;99.90
16076;DHT22;8142;48.242;11.644;2022-10-23T04:29:19;8.40;99.90
16076;DHT22;8142;48.242;11.644;2022-10-23T04:31:48;8.40;99.90
16076;DHT22;8142;48.242;11.644;2022-10-23T04:34:14;8.40;99.90
16076;DHT22;8142;48.242;11.644;2022-10-23T04:36:40;8.30;99.90
16076;DHT22;8142;48.242;11.644;2022-10-23T04:39:06;8.20;99.90
16076;DHT22;8142;48.242;11.644;2022-10-23T04:41:32;8.10;99.90
16076;DHT22;8142;48.242;11.644;2022-10-23T04:43:57;8.00;99.90
16076;DHT22;8142;48.242;11.644;2022-10-23T04:46:23;8.00;99.90
16076;DHT22;8142;48.242;11.644;2022-10-23T04:48:49;8.00;99.90
16076;DHT22;8142;48.242;11.644;2022-10-23T04:51:15;7.90;99.90
16076;DHT22;8142;48.242;11.644;2022-10-23T04:53:41;7.80;99.90
16076;DHT22;8142;48.242;11.644;2022-10-23T04:56:09;7.80;99.90
16076;DHT22;8142;48.242;11.644;2022-10-23T04:58:36;7.70;99.90
16076;DHT22;8142;48.242;11.644;2022-10-23T05:01:02;7.60;99.90
16076;DHT22;8142;48.242;11.644;2022-10-23T05:03:28;7.50;99.90
16076;DHT22;8142;48.242;11.644;2022-10-23T05:05:55;7.50;99.90
16076;DHT22;8142;48.242;11.644;2022-10-23T05:08:21;7.60;99.90
16076;DHT22;8142;48.242;11.644;2022-10-23T05:10:48;7.60;99.90
16076;DHT22;8142;48.242;11.644;2022-10-23T05:13:16;7.70;99.90
16076;DHT22;8142;48.242;11.644;2022-10-23T05:15:45;7.80;99.90
16076;DHT22;8142;48.242;11.644;2022-10-23T05:18:25;8.00;99.90
16076;DHT22;8142;48.242;11.644;2022-10-23T05:20:58;8.00;99.90
16076;DHT22;8142;48.242;11.644;2022-10-23T05:23:27;8.20;99.90
16076;DHT22;8142;48.242;11.644;2022-10-23T05:25:54;8.30;99.90
16076;DHT22;8142;48.242;11.644;2022-10-23T05:28:20;8.50;99.90
16076;DHT22;8142;48.242;11.644;2022-10-23T05:30:47;8.60;99.90
16076;DHT22;8142;48.242;11.644;2022-10-23T05:33:13;8.70;99.90
16076;DHT22;8142;48.242;11.644;2022-10-23T05:35:41;8.70;99.90
16076;DHT22;8142;48.242;11.644;2022-10-23T05:38:09;8.80;99.90
16076;DHT22;8142;48.242;11.644;2022-10-23T05:40:35;8.90;99.90
16076;DHT22;8142;48.242;11.644;2022-10-23T05:43:01;8.90;99.90
16076;DHT22;8142;48.242;11.644;2022-10-23T05:45:27;8.90;99.90
16076;DHT22;8142;48.242;11.644;2022-10-23T05:47:53;8.90;99.90
16076;DHT22;8142;48.242;11.644;2022-10-23T05:50:19;8.90;99.90
16076;DHT22;8142;48.242;11.644;2022-10-23T05:52:46;8.90;99.90
16076;DHT22;8142;48.242;11.644;2022-10-23T05:55:12;8.90;99.90
16076;DHT22;8142;48.242;11.644;2022-10-23T05:57:38;9.00;99.90
16076;DHT22;8142;48.242;11.644;2022-10-23T06:00:04;9.00;99.90
16076;DHT22;8142;48.242;11.644;2022-10-23T06:02:32;9.00;99.90
16076;DHT22;8142;48.242;11.644;2022-10-23T06:04:58;9.00;99.90
16076;DHT22;8142;48.242;11.644;2022-10-23T06:07:28;9.00;99.90
16076;DHT22;8142;48.242;11.644;2022-10-23T06:09:54;9.00;99.90
16076;DHT22;8142;48.242;11.644;2022-10-23T06:12:21;9.00;99.90
16076;DHT22;8142;48.242;11.644;2022-10-23T06:14:47;9.00;99.90
16076;DHT22;8142;48.242;11.644;2022-10-23T06:17:13;9.00;99.90
16076;DHT22;8142;48.242;11.644;2022-10-23T06:19:39;9.00;99.90
16076;DHT22;8142;48.242;11.644;2022-10-23T06:22:05;9.10;99.90
16076;DHT22;8142;48.242;11.644;2022-10-23T06:24:31;9.10;99.90
16076;DHT22;8142;48.242;11.644;2022-10-23T06:26:57;9.10;99.90
16076;DHT22;8142;48.242;11.644;2022-10-23T06:29:23;9.10;99.90
16076;DHT22;8142;48.242;11.644;2022-10-23T06:31:49;9.10;99.90
16076;DHT22;8142;48.242;11.644;2022-10-23T06:34:15;9.00;99.90
16076;DHT22;8142;48.242;11.644;2022-10-23T06:36:41;9.10;99.90
16076;DHT22;8142;48.242;11.644;2022-10-23T06:39:07;9.20;99.90
16076;DHT22;8142;48.242;11.644;2022-10-23T06:41:34;9.10;99.90
16076;DHT22;8142;48.242;11.644;2022-10-23T06:44:00;9.20;99.90
16076;DHT22;8142;48.242;11.644;2022-10-23T06:46:26;9.20;99.90
16076;DHT22;8142;48.242;11.644;2022-10-23T06:48:54;9.20;99.90
16076;DHT22;8142;48.242;11.644;2022-10-23T06:51:20;9.30;99.90
16076;DHT22;8142;48.242;11.644;2022-10-23T06:53:47;9.20;99.90
16076;DHT22;8142;48.242;11.644;2022-10-23T06:56:13;9.30;99.90
16076;DHT22;8142;48.242;11.644;2022-10-23T06:58:39;9.30;99.90
16076;DHT22;8142;48.242;11.644;2022-10-23T07:01:09;9.30;99.90
16076;DHT22;8142;48.242;11.644;2022-10-23T07:03:35;9.40;99.90
16076;DHT22;8142;48.242;11.644;2022-10-23T07:06:03;9.50;99.90
16076;DHT22;8142;48.242;11.644;2022-10-23T07:08:29;9.60;99.90
16076;DHT22;8142;48.242;11.644;2022-10-23T07:10:55;9.70;99.90
16076;DHT22;8142;48.242;11.644;2022-10-23T07:13:21;9.70;99.90
16076;DHT22;8142;48.242;11.644;2022-10-23T07:15:49;9.80;99.90
16076;DHT22;8142;48.242;11.644;2022-10-23T07:18:16;9.70;99.90
16076;DHT22;8142;48.242;11.644;2022-10-23T07:20:43;9.80;99.90
16076;DHT22;8142;48.242;11.644;2022-10-23T07:23:11;9.60;99.90
16076;DHT22;8142;48.242;11.644;2022-10-23T07:25:37;9.70;99.90
16076;DHT22;8142;48.242;11.644;2022-10-23T07:28:04;9.70;99.90
16076;DHT22;8142;48.242;11.644;2022-10-23T07:30:30;9.80;99.90
16076;DHT22;8142;48.242;11.644;2022-10-23T07:32:56;9.80;99.90
16076;DHT22;8142;48.242;11.644;2022-10-23T07:35:22;9.90;99.90
16076;DHT22;8142;48.242;11.644;2022-10-23T07:37:48;9.90;99.90
16076;DHT22;8142;48.242;11.644;2022-10-23T07:40:13;10.10;99.90
16076;DHT22;8142;48.242;11.644;2022-10-23T07:42:39;10.10;99.90
16076;DHT22;8142;48.242;11.644;2022-10-23T07:45:06;10.20;99.90
16076;DHT22;8142;48.242;11.644;2022-10-23T07:47:33;10.30;99.90
16076;DHT22;8142;48.242;11.644;2022-10-23T07:49:59;10.30;99.90
16076;DHT22;8142;48.242;11.644;2022-10-23T07:52:25;10.60;99.90
16076;DHT22;8142;48.242;11.644;2022-10-23T07:54:51;10.60;99.90
16076;DHT22;8142;48.242;11.644;2022-10-23T07:57:17;10.70;99.90
16076;DHT22;8142;48.242;11.644;2022-10-23T07:59:43;10.80;99.90
16076;DHT22;8142;48.242;11.644;2022-10-23T08:02:10;10.90;99.90
16076;DHT22;8142;48.242;11.644;2022-10-23T08:04:37;11.00;99.90
16076;DHT22;8142;48.242;11.644;2022-10-23T08:07:03;11.00;99.90
16076;DHT22;8142;48.242;11.644;2022-10-23T08:09:28;11.10;99.90
16076;DHT22;8142;48.242;11.644;2022-10-23T08:11:54;11.20;99.90
16076;DHT22;8142;48.242;11.644;2022-10-23T08:14:20;11.30;99.90
16076;DHT22;8142;48.242;11.644;2022-10-23T08:16:46;11.40;99.90
16076;DHT22;8142;48.242;11.644;2022-10-23T08:19:12;11.50;99.90
16076;DHT22;8142;48.242;11.644;2022-10-23T08:21:38;11.50;99.90
16076;DHT22;8142;48.242;11.644;2022-10-23T08:24:04;11.60;99.90
16076;DHT22;8142;48.242;11.644;2022-10-23T08:26:30;11.70;99.90
16076;DHT22;8142;48.242;11.644;2022-10-23T08:28:59;11.70;99.90
16076;DHT22;8142;48.242;11.644;2022-10-23T08:31:26;11.80;99.90
16076;DHT22;8142;48.242;11.644;2022-10-23T08:33:52;11.90;99.90
16076;DHT22;8142;48.242;11.644;2022-10-23T08:36:21;11.90;99.90
16076;DHT22;8142;48.242;11.644;2022-10-23T08:38:48;12.00;99.90
16076;DHT22;8142;48.242;11.644;2022-10-23T08:41:30;12.10;99.90
16076;DHT22;8142;48.242;11.644;2022-10-23T08:46:33;12.20;99.90
16076;DHT22;8142;48.242;11.644;2022-10-23T08:51:54;12.40;99.90
16076;DHT22;8142;48.242;11.644;2022-10-23T08:54:33;12.50;99.90
16076;DHT22;8142;48.242;11.644;2022-10-23T08:57:15;12.50;99.90
16076;DHT22;8142;48.242;11.644;2022-10-23T08:59:45;12.60;99.90
16076;DHT22;8142;48.242;11.644;2022-10-23T09:02:35;12.70;99.90
16076;DHT22;8142;48.242;11.644;2022-10-23T09:05:03;12.70;99.90
16076;DHT22;8142;48.242;11.644;2022-10-23T09:11:05;12.90;99.90
16076;DHT22;8142;48.242;11.644;2022-10-23T09:15:59;13.10;99.90
16076;DHT22;8142;48.242;11.644;2022-10-23T09:18:29;13.20;99.90
16076;DHT22;8142;48.242;11.644;2022-10-23T09:20:56;13.30;99.90
16076;DHT22;8142;48.242;11.644;2022-10-23T09:23:23;13.30;99.90
16076;DHT22;8142;48.242;11.644;2022-10-23T09:25:50;13.40;99.90
16076;DHT22;8142;48.242;11.644;2022-10-23T09:28:21;13.40;99.90
16076;DHT22;8142;48.242;11.644;2022-10-23T09:30:49;13.50;99.90
16076;DHT22;8142;48.242;11.644;2022-10-23T09:33:22;13.50;99.90
16076;DHT22;8142;48.242;11.644;2022-10-23T09:36:00;13.60;99.90
16076;DHT22;8142;48.242;11.644;2022-10-23T09:38:30;13.70;99.90
16076;DHT22;8142;48.242;11.644;2022-10-23T09:41:23;13.70;99.90
16076;DHT22;8142;48.242;11.644;2022-10-23T09:46:40;13.90;99.90
16076;DHT22;8142;48.242;11.644;2022-10-23T09:49:18;13.90;99.90
16076;DHT22;8142;48.242;11.644;2022-10-23T09:52:01;13.90;99.90
16076;DHT22;8142;48.242;11.644;2022-10-23T09:54:33;14.00;99.90
16076;DHT22;8142;48.242;11.644;2022-10-23T09:59:58;14.10;99.90
16076;DHT22;8142;48.242;11.644;2022-10-23T10:02:36;14.20;99.90
16076;DHT22;8142;48.242;11.644;2022-10-23T10:05:22;14.20;99.90
16076;DHT22;8142;48.242;11.644;2022-10-23T10:08:23;14.30;99.90
16076;DHT22;8142;48.242;11.644;2022-10-23T10:10:54;14.30;99.90
16076;DHT22;8142;48.242;11.644;2022-10-23T10:16:28;14.40;99.90
16076;DHT22;8142;48.242;11.644;2022-10-23T10:24:57;14.50;99.90
16076;DHT22;8142;48.242;11.644;2022-10-23T10:30:21;14.60;99.90
16076;DHT22;8142;48.242;11.644;2022-10-23T10:52:18;14.70;99.90
16076;DHT22;8142;48.242;11.644;2022-10-23T10:57:47;14.80;99.90
16076;DHT22;8142;48.242;11.644;2022-10-23T11:00:17;14.80;99.90
16076;DHT22;8142;48.242;11.644;2022-10-23T11:02:47;14.90;99.90
16076;DHT22;8142;48.242;11.644;2022-10-23T11:05:36;14.90;99.90
16076;DHT22;8142;48.242;11.644;2022-10-23T11:08:14;15.00;99.90
16076;DHT22;8142;48.242;11.644;2022-10-23T11:10:44;15.10;99.90
16076;DHT22;8142;48.242;11.644;2022-10-23T11:13:37;15.10;99.90
16076;DHT22;8142;48.242;11.644;2022-10-23T11:16:18;15.20;99.90
16076;DHT22;8142;48.242;11.644;2022-10-23T11:18:59;15.30;99.90
16076;DHT22;8142;48.242;11.644;2022-10-23T11:21:41;15.40;99.90
16076;DHT22;8142;48.242;11.644;2022-10-23T11:24:13;15.50;99.90
16076;DHT22;8142;48.242;11.644;2022-10-23T11:27:19;15.50;99.90
16076;DHT22;8142;48.242;11.644;2022-10-23T11:29:53;15.60;99.90
16076;DHT22;8142;48.242;11.644;2022-10-23T11:38:34;15.70;99.90
16076;DHT22;8142;48.242;11.644;2022-10-23T11:41:22;15.70;99.90
16076;DHT22;8142;48.242;11.644;2022-10-23T11:48:48;15.90;99.90
16076;DHT22;8142;48.242;11.644;2022-10-23T11:57:20;16.10;99.90
16076;DHT22;8142;48.242;11.644;2022-10-23T12:02:08;16.20;99.90
16076;DHT22;8142;48.242;11.644;2022-10-23T12:04:49;16.30;99.90
16076;DHT22;8142;48.242;11.644;2022-10-23T12:07:16;16.30;99.90
16076;DHT22;8142;48.242;11.644;2022-10-23T12:09:51;16.30;99.90
16076;DHT22;8142;48.242;11.644;2022-10-23T12:12:37;16.40;99.90
16076;DHT22;8142;48.242;11.644;2022-10-23T12:17:40;16.50;99.90
16076;DHT22;8142;48.242;11.644;2022-10-23T12:22:44;16.60;99.90
16076;DHT22;8142;48.242;11.644;2022-10-23T12:28:46;16.80;99.90
16076;DHT22;8142;48.242;11.644;2022-10-23T12:31:22;16.80;99.90
16076;DHT22;8142;48.242;11.644;2022-10-23T12:39:38;17.00;99.90
16076;DHT22;8142;48.242;11.644;2022-10-23T12:42:19;17.00;99.90
16076;DHT22;8142;48.242;11.644;2022-10-23T12:47:42;17.20;99.90
16076;DHT22;8142;48.242;11.644;2022-10-23T12:50:20;17.10;99.90
16076;DHT22;8142;48.242;11.644;2022-10-23T12:52:58;17.20;99.90
16076;DHT22;8142;48.242;11.644;2022-10-23T12:55:28;17.20;99.90
16076;DHT22;8142;48.242;11.644;2022-10-23T12:57:54;17.20;99.90
16076;DHT22;8142;48.242;11.644;2022-10-23T13:00:23;17.20;99.90
16076;DHT22;8142;48.242;11.644;2022-10-23T13:02:59;17.20;99.90
16076;DHT22;8142;48.242;11.644;2022-10-23T13:05:26;17.30;99.90
16076;DHT22;8142;48.242;11.644;2022-10-23T13:07:52;17.30;99.90
16076;DHT22;8142;48.242;11.644;2022-10-23T13:10:21;17.30;99.90
16076;DHT22;8142;48.242;11.644;2022-10-23T13:12:57;17.30;99.90
16076;DHT22;8142;48.242;11.644;2022-10-23T13:15:24;17.40;99.90
16076;DHT22;8142;48.242;11.644;2022-10-23T13:20:25;17.40;99.90
16076;DHT22;8142;48.242;11.644;2022-10-23T13:22:57;17.40;99.90
16076;DHT22;8142;48.242;11.644;2022-10-23T13:27:49;17.50;99.90
16076;DHT22;8142;48.242;11.644;2022-10-23T13:30:35;17.40;99.90
16076;DHT22;8142;48.242;11.644;2022-10-23T13:33:24;17.50;99.90
16076;DHT22;8142;48.242;11.644;2022-10-23T13:35:58;17.50;99.90
16076;DHT22;8142;48.242;11.644;2022-10-23T13:39:01;17.50;99.90
16076;DHT22;8142;48.242;11.644;2022-10-23T13:41:34;17.60;99.90
16076;DHT22;8142;48.242;11.644;2022-10-23T13:44:01;17.50;99.90
16076;DHT22;8142;48.242;11.644;2022-10-23T13:46:27;17.50;99.90
16076;DHT22;8142;48.242;11.644;2022-10-23T13:48:54;17.50;99.90
16076;DHT22;8142;48.242;11.644;2022-10-23T13:51:26;17.50;99.90
16076;DHT22;8142;48.242;11.644;2022-10-23T13:53:54;17.40;99.90
16076;DHT22;8142;48.242;11.644;2022-10-23T13:56:22;17.40;99.90
16076;DHT22;8142;48.242;11.644;2022-10-23T13:58:48;17.30;99.90
16076;DHT22;8142;48.242;11.644;2022-10-23T14:01:21;17.30;99.90
16076;DHT22;8142;48.242;11.644;2022-10-23T14:03:48;17.30;99.90
16076;DHT22;8142;48.242;11.644;2022-10-23T14:06:14;17.30;99.90
16076;DHT22;8142;48.242;11.644;2022-10-23T14:08:39;17.20;99.90
16076;DHT22;8142;48.242;11.644;2022-10-23T14:11:06;17.20;99.90
16076;DHT22;8142;48.242;11.644;2022-10-23T14:13:31;17.20;99.90
16076;DHT22;8142;48.242;11.644;2022-10-23T14:15:57;17.20;99.90
16076;DHT22;8142;48.242;11.644;2022-10-23T14:18:23;17.20;99.90
16076;DHT22;8142;48.242;11.644;2022-10-23T14:20:49;17.20;99.90
16076;DHT22;8142;48.242;11.644;2022-10-23T14:23:15;17.20;99.90
16076;DHT22;8142;48.242;11.644;2022-10-23T14:25:41;17.20;99.90
16076;DHT22;8142;48.242;11.644;2022-10-23T14:28:06;17.20;99.90
16076;DHT22;8142;48.242;11.644;2022-10-23T14:30:35;17.20;99.90
16076;DHT22;8142;48.242;11.644;2022-10-23T14:33:01;17.20;99.90
16076;DHT22;8142;48.242;11.644;2022-10-23T14:35:26;17.20;99.90
16076;DHT22;8142;48.242;11.644;2022-10-23T14:37:52;17.20;99.90
16076;DHT22;8142;48.242;11.644;2022-10-23T14:40:18;17.20;99.90
16076;DHT22;8142;48.242;11.644;2022-10-23T14:42:44;17.20;99.90
16076;DHT22;8142;48.242;11.644;2022-10-23T14:45:10;17.20;99.90
16076;DHT22;8142;48.242;11.644;2022-10-23T14:47:36;17.20;99.90
16076;DHT22;8142;48.242;11.644;2022-10-23T14:50:02;17.20;99.90
16076;DHT22;8142;48.242;11.644;2022-10-23T14:52:28;17.20;99.90
16076;DHT22;8142;48.242;11.644;2022-10-23T14:54:53;17.20;99.90
16076;DHT22;8142;48.242;11.644;2022-10-23T14:57:20;17.20;99.90
16076;DHT22;8142;48.242;11.644;2022-10-23T14:59:47;17.20;99.90
16076;DHT22;8142;48.242;11.644;2022-10-23T15:02:14;17.20;99.90
16076;DHT22;8142;48.242;11.644;2022-10-23T15:04:41;17.10;99.90
16076;DHT22;8142;48.242;11.644;2022-10-23T15:07:07;17.10;99.90
16076;DHT22;8142;48.242;11.644;2022-10-23T15:09:32;17.10;99.90
16076;DHT22;8142;48.242;11.644;2022-10-23T15:12:02;17.00;99.90
16076;DHT22;8142;48.242;11.644;2022-10-23T15:14:28;17.00;99.90
16076;DHT22;8142;48.242;11.644;2022-10-23T15:16:54;17.00;99.90
16076;DHT22;8142;48.242;11.644;2022-10-23T15:19:20;16.90;99.90
16076;DHT22;8142;48.242;11.644;2022-10-23T15:21:46;16.90;99.90
16076;DHT22;8142;48.242;11.644;2022-10-23T15:24:13;16.90;99.90
16076;DHT22;8142;48.242;11.644;2022-10-23T15:26:39;16.80;99.90
16076;DHT22;8142;48.242;11.644;2022-10-23T15:29:07;16.80;99.90
16076;DHT22;8142;48.242;11.644;2022-10-23T15:34:03;16.70;99.90
16076;DHT22;8142;48.242;11.644;2022-10-23T15:36:29;16.70;99.90
16076;DHT22;8142;48.242;11.644;2022-10-23T15:38:56;16.70;99.90
16076;DHT22;8142;48.242;11.644;2022-10-23T15:41:34;16.70;99.90
16076;DHT22;8142;48.242;11.644;2022-10-23T15:44:02;16.60;99.90
16076;DHT22;8142;48.242;11.644;2022-10-23T15:46:28;16.60;99.90
16076;DHT22;8142;48.242;11.644;2022-10-23T15:48:54;16.50;99.90
16076;DHT22;8142;48.242;11.644;2022-10-23T15:51:20;16.40;99.90
16076;DHT22;8142;48.242;11.644;2022-10-23T15:53:46;16.20;99.90
16076;DHT22;8142;48.242;11.644;2022-10-23T15:56:12;16.00;99.90
16076;DHT22;8142;48.242;11.644;2022-10-23T15:58:38;15.90;99.90
16076;DHT22;8142;48.242;11.644;2022-10-23T16:01:04;15.80;99.90
16076;DHT22;8142;48.242;11.644;2022-10-23T16:03:35;15.80;99.90
16076;DHT22;8142;48.242;11.644;2022-10-23T16:06:03;15.80;99.90
16076;DHT22;8142;48.242;11.644;2022-10-23T16:08:29;15.80;99.90
16076;DHT22;8142;48.242;11.644;2022-10-23T16:10:55;15.70;99.90
16076;DHT22;8142;48.242;11.644;2022-10-23T16:13:21;15.80;99.90
16076;DHT22;8142;48.242;11.644;2022-10-23T16:15:46;15.80;99.90
16076;DHT22;8142;48.242;11.644;2022-10-23T16:18:15;15.80;99.90
16076;DHT22;8142;48.242;11.644;2022-10-23T16:20:42;15.80;99.90
16076;DHT22;8142;48.242;11.644;2022-10-23T16:23:08;15.70;99.90
16076;DHT22;8142;48.242;11.644;2022-10-23T16:25:37;15.80;99.90
16076;DHT22;8142;48.242;11.644;2022-10-23T16:28:04;15.80;99.90
16076;DHT22;8142;48.242;11.644;2022-10-23T16:30:29;15.80;99.90
16076;DHT22;8142;48.242;11.644;2022-10-23T16:32:55;15.70;99.90
16076;DHT22;8142;48.242;11.644;2022-10-23T16:35:21;15.70;99.90
16076;DHT22;8142;48.242;11.644;2022-10-23T16:37:47;15.70;99.90
16076;DHT22;8142;48.242;11.644;2022-10-23T16:40:14;15.60;99.90
16076;DHT22;8142;48.242;11.644;2022-10-23T16:42:40;15.60;99.90
16076;DHT22;8142;48.242;11.644;2022-10-23T16:45:09;15.60;99.90
16076;DHT22;8142;48.242;11.644;2022-10-23T16:47:35;15.60;99.90
16076;DHT22;8142;48.242;11.644;2022-10-23T16:50:01;15.50;99.90
16076;DHT22;8142;48.242;11.644;2022-10-23T16:52:27;15.60;99.90
16076;DHT22;8142;48.242;11.644;2022-10-23T16:54:53;15.50;99.90
16076;DHT22;8142;48.242;11.644;2022-10-23T16:57:19;15.50;99.90
16076;DHT22;8142;48.242;11.644;2022-10-23T16:59:45;15.50;99.90
16076;DHT22;8142;48.242;11.644;2022-10-23T17:02:11;15.50;99.90
16076;DHT22;8142;48.242;11.644;2022-10-23T17:04:37;15.50;99.90
16076;DHT22;8142;48.242;11.644;2022-10-23T17:07:04;15.50;99.90
16076;DHT22;8142;48.242;11.644;2022-10-23T17:09:30;15.50;99.90
16076;DHT22;8142;48.242;11.644;2022-10-23T17:11:57;15.50;99.90
16076;DHT22;8142;48.242;11.644;2022-10-23T17:14:24;15.40;99.90
16076;DHT22;8142;48.242;11.644;2022-10-23T17:16:58;15.40;99.90
16076;DHT22;8142;48.242;11.644;2022-10-23T17:19:27;15.40;99.90
16076;DHT22;8142;48.242;11.644;2022-10-23T17:21:54;15.40;99.90
16076;DHT22;8142;48.242;11.644;2022-10-23T17:24:20;15.40;99.90
16076;DHT22;8142;48.242;11.644;2022-10-23T17:26:46;15.30;99.90
16076;DHT22;8142;48.242;11.644;2022-10-23T17:29:13;15.30;99.90
16076;DHT22;8142;48.242;11.644;2022-10-23T17:31:41;15.30;99.90
16076;DHT22;8142;48.242;11.644;2022-10-23T17:34:11;15.30;99.90
16076;DHT22;8142;48.242;11.644;2022-10-23T17:36:40;15.20;99.90
16076;DHT22;8142;48.242;11.644;2022-10-23T17:39:09;15.20;99.90
16076;DHT22;8142;48.242;11.644;2022-10-23T17:41:37;15.20;99.90
16076;DHT22;8142;48.242;11.644;2022-10-23T17:44:03;15.10;99.90
16076;DHT22;8142;48.242;11.644;2022-10-23T17:46:29;15.20;99.90
16076;DHT22;8142;48.242;11.644;2022-10-23T17:48:59;15.10;99.90
16076;DHT22;8142;48.242;11.644;2022-10-23T17:51:27;15.10;99.90
16076;DHT22;8142;48.242;11.644;2022-10-23T17:53:55;15.10;99.90